WetterOnline ( http://www.wetteronline.de )

Wetter aktuell Plön

Aktuelles Wetter: Dörnick (28m)

6-stündlich | Neueste Meldungen
Ortszeit Temperatur Wetter
So, 19.08. 2:00 16.3° C leicht bewölkt
Sa, 18.08. 20:00 21.1° C wolkig
Sa, 18.08. 14:00 22.1° C wolkig
Sa, 18.08. 8:00 14.1° C wolkenlos
Sa, 18.08. 2:00 9.7° C wolkenlos
Fr, 17.08. 20:00 19.7° C wolkenlos
Fr, 17.08. 14:00 17.5° C leichter Regen
Fr, 17.08. 8:00 16.9° C wolkig
Ortszeit Temperatur Wetter
So, 19.08. 4:00 15.5° C wolkig
So, 19.08. 3:50 15.5° C wolkig
So, 19.08. 3:40 15.4° C wolkig
So, 19.08. 3:30 14.5° C wolkig
So, 19.08. 3:20 14.5° C wolkig
So, 19.08. 3:10 14.5° C wolkig
So, 19.08. 3:00 14.7° C wolkig
So, 19.08. 2:30 15.6° C bedeckt
So, 19.08. 2:00 16.3° C leicht bewölkt
So, 19.08. 1:30 17.6° C bedeckt
So, 19.08. 1:00 18.0° C bewölkt
Ortszeit Relative Feuchte Sichtweite
So, 19.08. 2:00 91% 17 km
Sa, 18.08. 20:00 59% 35 km
Sa, 18.08. 14:00 48% 6 km
Sa, 18.08. 8:00 87% 9 km
Sa, 18.08. 2:00 97% 7 km
Fr, 17.08. 20:00 56% 40 km
Fr, 17.08. 14:00 93% 7 km
Fr, 17.08. 8:00 96% 6 km
Ortszeit Relative Feuchte Sichtweite
So, 19.08. 4:00 97% 12 km
So, 19.08. 3:50 97% -
So, 19.08. 3:40 97% -
So, 19.08. 3:30 97% 10 km
So, 19.08. 3:20 97% -
So, 19.08. 3:10 97% -
So, 19.08. 3:00 96% 11 km
So, 19.08. 2:30 94% 14 km
So, 19.08. 2:00 91% 17 km
So, 19.08. 1:30 86% 19 km
So, 19.08. 1:00 84% 19 km
Ortszeit Niederschlagsmenge Niederschlagsart
So, 19.08. 2:00 0.0 l/m2 in 6 Std. -
Sa, 18.08. 20:00 0.0 l/m2 in 12 Std. -
Sa, 18.08. 14:00 0.0 l/m2 in 6 Std. -
Sa, 18.08. 8:00 0.0 l/m2 in 12 Std. -
Sa, 18.08. 2:00 0.0 l/m2 in 6 Std. -
Fr, 17.08. 20:00 4 l/m2 in 12 Std. Regen
Fr, 17.08. 14:00 3 l/m2 in 6 Std. Regen
Fr, 17.08. 8:00 0.0 l/m2 in 12 Std. -
Ortszeit Niederschlagsmenge Niederschlagsart
So, 19.08. 4:00 0.0 l/m2 in 1 Std. -
So, 19.08. 3:50 keine Meldung -
So, 19.08. 3:40 keine Meldung -
So, 19.08. 3:30 0.0 l/m2 in 1 Std. -
So, 19.08. 3:20 keine Meldung -
So, 19.08. 3:10 keine Meldung -
So, 19.08. 3:00 0.0 l/m2 in 1 Std. -
So, 19.08. 2:30 0.0 l/m2 in 1 Std. -
So, 19.08. 2:00 0.0 l/m2 in 1 Std. -
So, 19.08. 1:30 0.0 l/m2 in 1 Std. -
So, 19.08. 1:00 0.0 l/m2 in 1 Std. -
Ortszeit Stärke Spitze Richtung
km/h Bft. km/h Grad Sektor
So, 19.08. 2:00 7 2 25 230° SW
Sa, 18.08. 20:00 13 3 37 250° W
Sa, 18.08. 14:00 18 3 40 250° W
Sa, 18.08. 8:00 9 2 19 220° SW
Sa, 18.08. 2:00 0 0 14 - -
Fr, 17.08. 20:00 9 2 28 300° NW
Fr, 17.08. 14:00 7 2 24 240° SW
Fr, 17.08. 8:00 2 1 9 350° N
Ortszeit Stärke Spitze Richtung
km/h Bft. km/h Grad Sektor
So, 19.08. 4:00 9 2 13 200° S
So, 19.08. 3:50 9 2 - 200° S
So, 19.08. 3:40 9 2 - 200° S
So, 19.08. 3:30 7 2 7 200° S
So, 19.08. 3:20 7 2 - 200° S
So, 19.08. 3:10 6 1 - 200° S
So, 19.08. 3:00 7 2 7 200° S
So, 19.08. 2:30 6 1 7 220° SW
So, 19.08. 2:00 7 2 14 230° SW
So, 19.08. 1:30 7 2 14 260° W
So, 19.08. 1:00 7 2 17 260° W
Ortszeit Untergrenze Bedeckung Gattung
total tief tief mittel hoch
So, 19.08. 2:00 1290 m 5/8 3/8 - - -
Sa, 18.08. 20:00 8100 m 8/8 0/8 - - -
Sa, 18.08. 14:00 1440 m 5/8 4/8 - - -
Sa, 18.08. 8:00 - 0/8 0/8 - - -
Sa, 18.08. 2:00 - 0/8 0/8 - - -
Fr, 17.08. 20:00 - 0/8 0/8 - - -
Fr, 17.08. 14:00 360 m 8/8 8/8 - - -
Fr, 17.08. 8:00 2400 m 6/8 6/8 - - -
Ortszeit Bedeckungsgrad in Achtel und Wolkenuntergrenze
So, 19.08. 4:00 1(1500m) 6(10500m) 7(12000m)
So, 19.08. 3:50 1(1500m) 6(10500m) 7(12000m)
So, 19.08. 3:40 7(10500m)
So, 19.08. 3:30 1(10500m) 7(10500m) 8(12000m)
So, 19.08. 3:20 1(10500m) 7(10500m) 8(12000m)
So, 19.08. 3:10 3(10500m) 7(10500m) 8(12000m)
So, 19.08. 3:00 1(2400m) 7(10500m) 7(12000m)
So, 19.08. 2:30 9 9 9
So, 19.08. 2:00 1(1290m) 3(2400m) 5(12000m)
So, 19.08. 1:30 8(1170m) 9 9
So, 19.08. 1:00 7(1170m) 7(1800m) 9
Ortszeit Luftdruck NN (hPa) Tendenz (hPa in 3 Std.)
So, 19.08. 2:00 1021 + 0,3
Sa, 18.08. 20:00 1020 + 0,2
Sa, 18.08. 14:00 1020 - 0,5
Sa, 18.08. 8:00 1021 + 0,6
Sa, 18.08. 2:00 1020 + 0,8
Fr, 17.08. 20:00 1018 + 0,3
Fr, 17.08. 14:00 1018 + 1,0
Fr, 17.08. 8:00 1016 + 1,0
Ortszeit Luftdruck NN (hPa) Tendenz (hPa in 3 Std.)
So, 19.08. 4:00 1020 - 0,4
So, 19.08. 3:50 1020 keine Meldung
So, 19.08. 3:40 1020 keine Meldung
So, 19.08. 3:30 1020 - 0,3
So, 19.08. 3:20 1020 keine Meldung
So, 19.08. 3:10 1020 keine Meldung
So, 19.08. 3:00 1020 - 0,3
So, 19.08. 2:30 1021 + 0,2
So, 19.08. 2:00 1021 + 0,3
So, 19.08. 1:30 1021 + 0,3
So, 19.08. 1:00 1021 + 0,3
Ortszeit Schneehöhe (cm)
So, 19.08. 2:00 -
Sa, 18.08. 20:00 -
Sa, 18.08. 14:00 -
Sa, 18.08. 8:00 -
Sa, 18.08. 2:00 -
Fr, 17.08. 20:00 -
Fr, 17.08. 14:00 -
Fr, 17.08. 8:00 -
Ortszeit Schneehöhe (cm)
So, 19.08. 4:00 -
So, 19.08. 3:50 -
So, 19.08. 3:40 -
So, 19.08. 3:30 -
So, 19.08. 3:20 -
So, 19.08. 3:10 -
So, 19.08. 3:00 -
So, 19.08. 2:30 -
So, 19.08. 2:00 -
So, 19.08. 1:30 -
So, 19.08. 1:00 -
Link zu dieser Seite / Seite empfehlen

Das Wetter in ...